TAF KSUX
AMD KSUX 081804Z 0818/0918 15011G20KT P6SM FEW250 FM090100 14012G20KT P6SM BKN250 WS020/18040KT FM091100 16010G16KT P6SM BKN200 WS020/21035KT FM091200 16008KT P6SM SCT250 FM091600 29011G21KT P6SM FEW250=
METAR KSUX
WC KSUX
WS KSUX
WV KSUX